Hlavní strana
METAR-TAF:

METAR-TAF

Letiště :

Tulcea, Rumunsko

zeměpisná šířka: 45-11N, zeměpisná délka: 028-49E, výška: 4 m

Aktuální stav počasí

Zpráva byla vytvořena před 29 minutami, v 00:00 UTC
Severozápadní vítr 9 kt
Teplota 6°C
Vlhkost vzduchu 87%
Tlak 1025 hPa
Viditelnost 10 km a více

METAR: LRTC 200000Z AUTO 31009KT 9999 FEW050/// BKN100/// 06/04 Q1025

Čas: 03:29 (00:29 UTC)

Předpověď počasí

Zpráva byla vytvořena před 10 hodinami a 29 minutami, v 14:00 UTC
Předpověď platná od 19 v 15 UTC do 19 v 24 UTC
Východoseverovýchodní vítr 8 kt
Viditelnost 10 km a více
Polojasno ve výšce 4000 ft
Dočasný
od 19 v 15 UTC do 19 v 17 UTC
Viditelnost: 5000 m
Polojasno ve výšce 4000 ft, Cumulonimbus.
slabé dešťové přeháňky

TAF: LRTC 191400Z 1915/1924 06008KT 9999 SCT040 TEMPO 1915/1917 5000 -SHRA SCT040CB

Stav a předpovědi počasí z více než 4 000 letišť (zprávy METAR a TAF).

Červené a žluté tečky na mapě představují dostupné meteorologické stanice.

Když kurzor umístíte na tečku, zobrazí se název stanice.

Pak kliknutím zobrazíte stav a předpověď počasí.

Chcete-li změnit mapu, kliknutím na zelené tlačítko se znaménkem +mapu přiblížíte, kliknutím na zelené tlačítko se znaménkem – mapu oddálíte a kliknutím na zelené šipky přejdete na sousední mapy.


METAR-TAF: